Weather reports worldwide

Advertisment
Lehighton Jake Arner Memorial, United States of America (2075479): temperature & dewpoint: 09.12.2019 13:00:00 - 15.12.2019 13:00:00 (EST)Lehighton Jake Arner Memorial, United States of America (2075479): wind speed: 09.12.2019 13:00:00 - 15.12.2019 13:00:00 (EST)Lehighton Jake Arner Memorial, United States of America (2075479): wind direction: 09.12.2019 13:00:00 - 15.12.2019 13:00:00 (EST)Lehighton Jake Arner Memorial, United States of America (2075479): visibility: 09.12.2019 13:00:00 - 15.12.2019 13:00:00 (EST)
Date & Time tt [°C] td [°C] ff [km/h] ff [kn] dd vv [km]
15.12.2019 13:00:00 5,0 -2,0 16 9 W 16
15.12.2019 12:00:00 5,0 -2,0 22 12 W 16
15.12.2019 11:00:00 5,0 -2,0 26 14 W 16
15.12.2019 10:00:00 6,0 0,0 24 13 W 16
15.12.2019 09:00:00 6,0 0,0 18 10 W 16
15.12.2019 08:00:00 5,0 1,0 0 0 N 16
15.12.2019 07:00:00 5,0 1,0 0 0 N 16
15.12.2019 06:00:00 5,0 1,0 9 5 WSW 16
15.12.2019 05:00:00 5,0 1,0 9 5 WSW 16
15.12.2019 04:00:00 5,0 1,0 9 5 WSW 16
15.12.2019 03:00:00 5,0 0,0 8 4 WSW 16
15.12.2019 02:00:00 5,0 1,0 13 7 W 16
15.12.2019 01:00:00 5,0 1,0 15 8 W 16
15.12.2019 00:00:00 3,0 2,0 13 7 WSW 16
14.12.2019 23:00:00 3,0 2,0 15 8 W 16
14.12.2019 22:00:00 5,0 1,0 15 8 W 16
14.12.2019 21:00:00 5,0 2,0 21 11 W 16
14.12.2019 20:00:00 6,0 2,0 15 8 W 16
14.12.2019 19:00:00 6,0 3,0 21 11 W 16
14.12.2019 18:00:00 7,0 6,0 15 8 WSW 16
14.12.2019 17:00:00 8,0 7,0 13 7 WSW 16
14.12.2019 16:00:00 8,0 8,0 9 5 SW 16
14.12.2019 15:00:00 8,0 8,0 9 5 SW 11
14.12.2019 14:00:00 9,0 9,0 0 0 N 2,4
14.12.2019 13:00:00 9,0 9,0 0 0 N 1,6
14.12.2019 12:00:00 8,0 8,0 5 3 ENE 2,0
14.12.2019 11:00:00 8,0 8,0 0 0 N 11
14.12.2019 10:00:00 6,0 6,0 0 0 N 1,6
14.12.2019 09:00:00 5,0 5,0 0 0 N 0,8
14.12.2019 08:00:00 4,0 4,0 0 0 N 0,8
14.12.2019 07:00:00 3,0 3,0 0 0 N 1,6
14.12.2019 06:00:00 3,0 3,0 0 0 N 4,8
14.12.2019 05:00:00 3,0 3,0 0 0 N 4,0
14.12.2019 04:00:00 3,0 3,0 0 0 N 2,0
14.12.2019 03:00:00 3,0 3,0 0 0 N 4,0
14.12.2019 02:00:00 3,0 3,0 0 0 N 2,4
14.12.2019 01:00:00 3,0 3,0 0 0 N 3,2
14.12.2019 00:00:00 3,0 3,0 0 0 N 1,6
13.12.2019 23:00:00 3,0 3,0 0 0 N 6
13.12.2019 22:00:00 2,0 2,0 0 0 N 3,2
13.12.2019 21:00:00 2,0 2,0 0 0 N 0,8
13.12.2019 20:00:00 2,0 2,0 0 0 N 0,8
13.12.2019 19:00:00 2,0 2,0 0 0 N 1,2
13.12.2019 18:00:00 2,0 2,0 0 0 N 1,2
13.12.2019 17:00:00 2,0 2,0 0 0 N 2,4
13.12.2019 16:00:00 2,0 2,0 0 0 N 4,8
13.12.2019 15:00:00 2,0 2,0 0 0 N 4,0
13.12.2019 14:00:00 1,0 1,0 0 0 N 2,4
13.12.2019 13:00:00 1,0 0,0 0 0 N 6
13.12.2019 12:00:00 1,0 -1,0 0 0 N 16
13.12.2019 11:00:00 0,0 -1,0 0 0 N 16
13.12.2019 10:00:00 0,0 -2,0 0 0 N 16
13.12.2019 09:00:00 0,0 -2,0 0 0 N 16
13.12.2019 08:00:00 0,0 -3,0 0 0 N 16
13.12.2019 07:00:00 -1,0 -3,0 0 0 N 16
13.12.2019 06:00:00 -1,0 -3,0 0 0 N 16
13.12.2019 05:00:00 -2,0 -3,0 0 0 N 16
13.12.2019 04:00:00 -2,0 -4,0 0 0 N 16
13.12.2019 03:00:00 -3,0 -4,0 0 0 N 16
13.12.2019 02:00:00 -5,0 -5,0 0 0 N 16
13.12.2019 01:00:00 -5,0 -6,0 0 0 N 16
13.12.2019 00:00:00 -6,0 -6,0 0 0 N 16
12.12.2019 23:00:00 - - - - - -
12.12.2019 22:00:00 -5,0 -6,0 0 0 N 16
12.12.2019 21:00:00 -4,0 -6,0 0 0 N 16
12.12.2019 20:00:00 -4,0 -6,0 0 0 N 16
12.12.2019 19:00:00 -3,0 -5,0 0 0 N 16
12.12.2019 18:00:00 -2,0 -5,0 0 0 N 16
12.12.2019 17:00:00 -1,0 -7,0 0 0 N 16
12.12.2019 16:00:00 0,0 -9,0 5 3 SSW 16
12.12.2019 15:00:00 1,0 -10,0 5 3 S 16
12.12.2019 14:00:00 1,0 -10,0 8 4 S 16
12.12.2019 13:00:00 0,0 -10,0 0 0 N 16
12.12.2019 12:00:00 0,0 -8,0 0 0 N 16
12.12.2019 11:00:00 0,0 -8,0 0 0 N 16
12.12.2019 10:00:00 -2,0 -8,0 0 0 N 16
12.12.2019 09:00:00 -4,0 -7,0 0 0 N 16
12.12.2019 08:00:00 -8,0 -8,0 0 0 N 16
12.12.2019 07:00:00 -8,0 -8,0 0 0 N 16
12.12.2019 06:00:00 -8,0 -8,0 0 0 N 16
12.12.2019 05:00:00 -7,0 -8,0 0 0 N 16
12.12.2019 04:00:00 -6,0 -9,0 0 0 N 16
12.12.2019 03:00:00 -3,0 -10,0 5 3 W 16
12.12.2019 02:00:00 -3,0 -10,0 0 0 N 16
12.12.2019 01:00:00 -2,0 -11,0 5 3 W 16
12.12.2019 00:00:00 -1,0 -10,0 5 3 W 16
11.12.2019 23:00:00 -1,0 -8,0 9 5 W 16
11.12.2019 22:00:00 -1,0 -8,0 11 6 W 16
11.12.2019 21:00:00 -1,0 -9,0 11 6 W 16
11.12.2019 20:00:00 0,0 -10,0 8 4 W 16
11.12.2019 19:00:00 0,0 -10,0 9 5 W 16
11.12.2019 18:00:00 0,0 -10,0 11 6 W 16
11.12.2019 17:00:00 0,0 -10,0 9 5 WSW 16
11.12.2019 16:00:00 1,0 -9,0 11 6 W 16
11.12.2019 15:00:00 2,0 -8,0 18 10 WSW 16
11.12.2019 14:00:00 3,0 -8,0 16 9 W 16
11.12.2019 13:00:00 3,0 -8,0 8 4 WSW 16
11.12.2019 12:00:00 2,0 -3,0 8 4 WNW 16
11.12.2019 11:00:00 1,0 -2,0 8 4 W 16
11.12.2019 10:00:00 0,0 0,0 0 0 N 16
11.12.2019 09:00:00 0,0 0,0 0 0 N 16
11.12.2019 08:00:00 0,0 0,0 0 0 N 11
11.12.2019 07:00:00 0,0 0,0 0 0 N 16
11.12.2019 06:00:00 0,0 0,0 0 0 N 16
11.12.2019 05:00:00 0,0 0,0 0 0 N 16
11.12.2019 04:00:00 0,0 0,0 0 0 N 4,8
11.12.2019 03:00:00 0,0 0,0 0 0 N 1,6
11.12.2019 02:00:00 1,0 1,0 0 0 N 11
11.12.2019 01:00:00 1,0 1,0 5 3 WSW 11
11.12.2019 00:00:00 1,0 1,0 0 0 N 8
10.12.2019 23:00:00 2,0 2,0 5 3 W 16
10.12.2019 22:00:00 1,0 1,0 0 0 N 8
10.12.2019 21:00:00 2,0 1,0 5 3 WSW 11
10.12.2019 20:00:00 6,0 0,0 13 7 W 16
10.12.2019 19:00:00 7,0 2,0 11 6 WNW 16
10.12.2019 18:00:00 8,0 5,0 8 4 WNW 16
10.12.2019 17:00:00 10,0 5,0 11 6 WSW 16
10.12.2019 16:00:00 11,0 8,0 11 6 WSW 16
10.12.2019 15:00:00 11,0 10,0 11 6 WSW 16
10.12.2019 14:00:00 - - 5 3 WSW 11
10.12.2019 13:00:00 - - 0 0 N 11
10.12.2019 12:00:00 - - 0 0 N 11
10.12.2019 11:00:00 - - 5 3 WSW 11
10.12.2019 10:00:00 - - 0 0 N 4,0
10.12.2019 09:00:00 - - 0 0 N 1,6
10.12.2019 08:00:00 - - 0 0 N 3,2
10.12.2019 07:00:00 - - 0 0 N 3,2
10.12.2019 06:00:00 - - 0 0 N 6
10.12.2019 05:00:00 - - 0 0 N 11
10.12.2019 04:00:00 - - 0 0 N 11
10.12.2019 03:00:00 - - 8 4 W 11
10.12.2019 02:00:00 - - 5 3 W 16
10.12.2019 01:00:00 - - 0 0 N 16
10.12.2019 00:00:00 - - 8 4 SW 16
09.12.2019 23:00:00 - - 0 0 N 16
09.12.2019 22:00:00 - - 9 5 SW 16
09.12.2019 21:00:00 - - 5 3 SW 16
09.12.2019 20:00:00 - - 5 3 SW 16
09.12.2019 19:00:00 - - 5 3 SW 16
09.12.2019 18:00:00 - - 13 7 SW 16
09.12.2019 17:00:00 - - 0 0 N 2,4
09.12.2019 16:00:00 - - 0 0 N 1,6
09.12.2019 15:00:00 - - 0 0 N 3,2
09.12.2019 14:00:00 - - 0 0 N 4,0
09.12.2019 13:00:00 - - 0 0 N 4,8

tt = temperature
td = dewpoint
ff = wind speed
dd = wind direction
vv = visibility

Next stations